Tiempo atmosférico en la estación meteorológica de Alhama de Murcia, Murcia (157 m.)



Fecha
DESCASC
Temp. máxima en grados centígrados (hora)
DESCASC
Temp. mínima en grados centígrados (hora)
DESCASC
Temp. media en grados centígrados
DESCASC
Racha de viento máxima en m/sg (hora)
DESCASC
Velocidad máxima media en intervalos de 10 minutos(hora)
DESCASC
Precipitaciones diarias en mm
DESCASC
Precipitaciones de 00:00 a 06:00 en mm
DESCASC
Precipitaciones de 06:00 a 12:00 en mm
DESCASC
Precipitaciones de 12:00 a 18:00 en mm
DESCASC
Precipitaciones de 18:00 a 24:00 en mm
DESCASC
23-05-2018 29.4 (14:10) 13 (05:20) 21.2 8.06 (14:50) 4.72 (20:10) 0 0 0 0 0
22-05-2018 29.3 (14:50) 12.6 (06:20) 20.9 11.11 (19:30) 7.22 (18:40) 0 0 0 0 0
21-05-2018 26.3 (14:10) 10.8 (07:10) 18.5 11.94 (15:50) 7.5 (16:10) 0 0 0 0 0
20-05-2018 25.6 (16:40) 12.4 (00:00) 19 9.72 (19:20) 5.28 (19:30) 0 0 0 0 0
19-05-2018 25.8 (16:50) 11.8 (00:00) 18.8 12.5 (16:50) 4.44 (15:30) 0 0 0 0 0
18-05-2018 25.8 (15:50) 11.4 (00:00) 18.6 8.33 (15:40) 4.17 (18:10) 0 0 0 0 0
17-05-2018 23.6 (16:20) 10.8 (00:00) 17.2 11.11 (15:10) 6.39 (13:50) 0 0 0 0 0
16-05-2018 24.8 (17:10) 10.8 (00:00) 17.8 10.28 (16:40) 5.56 (16:30) 0 0 0 0 0
15-05-2018 24.1 (15:20) 10.8 (00:00) 17.5 9.72 (15:50) 4.72 (16:20) 0 0 0 0 0
14-05-2018 25.6 (16:00) 9.2 (00:00) 17.4 7.78 (21:20) 4.72 (21:10) 0 0 0 0 0
13-05-2018 24 (17:20) 13.6 (00:00) 18.8 10.56 (17:50) 6.39 (19:50) 0 0 0 0 0
12-05-2018 27 (14:10) 13.9 (00:00) 20.4 10.83 (15:50) 6.67 (16:10) 0 0 0 0 0
11-05-2018 26.3 (16:30) 13.6 (04:00) 19.9 9.72 (17:10) 6.39 (17:20) 0 0 0 0 0
10-05-2018 24.9 (14:10) 14.8 (00:00) 19.8 11.67 (14:40) 6.67 (14:40) 32.4 0 0 31.8 0.6
09-05-2018 29.2 (14:30) 13.5 (00:00) 21.4 12.78 (16:00) 7.78 (16:10) 2.8 0 0 0 2.8
08-05-2018 29 (16:10) 12.5 (00:00) 20.8 12.78 (16:40) 7.5 (16:50) 6.2 0 0 6 0.2
07-05-2018 25.8 (15:40) 11.7 (00:00) 18.7 9.17 (21:00) 5.83 (21:00) 0 0 0 0 0
06-05-2018 25.6 (16:30) 10.6 (00:00) 18.1 9.17 (16:40) 5.28 (16:50) 0 0 0 0 0
05-05-2018 25.8 (14:00) 13.9 (00:00) 19.8 10.56 (20:20) 6.11 (14:50) 0 0 0 0 0
04-05-2018 23.5 (16:40) 13.5 (00:00) 18.5 9.17 (14:30) 5 (18:10) 0 0 0 0 0
03-05-2018 26.5 (14:50) 13.3 (00:00) 19.9 9.17 (11:20) 5 (16:50) 0 0 0 0 0
02-05-2018 23.9 (14:40) 4.8 (00:00) 14.3 10.28 (19:10) 6.39 (19:10) 0 0 0 0 0
01-05-2018 19 (15:50) 8 (05:40) 13.5 10.28 (16:10) 6.39 (17:20) 0.2 0 0 0.2 0
30-04-2018 22.4 (15:10) 8.4 (00:00) 15.4 7.5 (15:00) 4.44 (22:30) 1.4 0 0 0.6 0.8
29-04-2018 22.8 (16:40) 11.3 (00:00) 17 18.06 (12:40) 9.17 (12:40) 0 0 0 0 0
28-04-2018 28.2 (16:20) 13.5 (00:00) 20.9 13.33 (17:00) 7.5 (17:00) 0 0 0 0 0
27-04-2018 29 (14:30) 12.9 (00:00) 20.9 10 (14:40) 6.67 (14:40) 0.4 0 0 0.4 0
26-04-2018 23.4 (16:40) 15.3 (00:00) 19.3 8.33 (14:10) 5 (13:20) 2.8 0.8 2 0 0
25-04-2018 19.3 (09:50) 16 (00:00) 17.6 7.78 (12:00) 3.89 (02:30) 2.8 0 0.4 2.2 0.2
24-04-2018 27 (15:00) 16.8 (00:00) 21.9 15.28 (11:10) 9.72 (11:50) 0 0 0 0 0

Gráficas

Temp. máximas Temp. mínimas Temp. medias Precipitaciones Rachas de viento máximas Velocidades máximas media en intervalos de 10 minutos

Datos horarios

Fecha y hora oficial Temperatura (ºC) Velocidad del viento (km/h) Dirección del viento Racha (km/h) Dirección de racha Precipitación (mm) Presión (hPa) Tendencia (hPa) Humedad (%)
2018-05-23 23:00:00 18.7 5 Este 13 Nordeste 0 -- -- 49
2018-05-23 22:00:00 20.5 9 Nordeste 21 Norte 0 -- -- 39
2018-05-23 21:00:00 22.7 16 Nordeste 28 Nordeste 0 -- -- 35
2018-05-23 20:00:00 24.6 16 Nordeste 26 Nordeste 0 -- -- 28
2018-05-23 19:00:00 26.4 13 Nordeste 20 Nordeste 0 -- -- 23
2018-05-23 18:00:00 27.9 12 Norte 19 Norte 0 -- -- 22
2018-05-23 17:00:00 27.5 5 Norte 13 Este 0 -- -- 26
2018-05-23 16:00:00 27.4 3 Sur 26 Sudeste 0 -- -- 26
2018-05-23 15:00:00 28.2 17 Sudeste 29 Este 0 -- -- 24
2018-05-23 14:00:00 29 10 Oeste 22 Sudoeste 0 -- -- 30
2018-05-23 13:00:00 25.9 6 Nordeste 17 Nordeste 0 -- -- 42
2018-05-23 12:00:00 23.6 11 Nordeste 20 Norte 0 -- -- 53
2018-05-23 11:00:00 21.8 8 Nordeste 14 Norte 0 -- -- 55
2018-05-23 10:00:00 20 5 Norte 9 Nordeste 0 -- -- 65
2018-05-23 09:00:00 17.6 4 Nordeste 6 Nordeste 0 -- -- 79
2018-05-23 08:00:00 14.6 3 Nordeste 10 Nordeste 0 -- -- 86
2018-05-23 07:00:00 13.6 4 Nordeste 8 Este 0 -- -- 88
2018-05-23 06:00:00 13 5 Este 6 Este 0 -- -- 91
2018-05-23 05:00:00 13.2 0 Calma 4 Este 0 -- -- 89
2018-05-23 04:00:00 13.6 3 Sur 5 Oeste 0 -- -- 85
2018-05-23 03:00:00 14.4 5 Este 6 Este 0 -- -- 81
2018-05-23 02:00:00 15.4 2 Norte 7 Sudeste 0 -- -- 79
2018-05-23 01:00:00 15.9 3 Sur 9 Sur 0 -- -- 78
2018-05-23 00:00:00 17.7 6 Sudoeste 12 Sudoeste 0 -- -- 59
2018-05-22 23:00:00 20.7 6 Sudoeste 23 Sur 0 -- -- 48
2018-05-22 22:00:00 22.1 15 Sur 32 Sur 0 -- -- 38
2018-05-22 21:00:00 22.8 17 Sur 36 Sur 0 -- -- 35
2018-05-22 20:00:00 25.1 21 Sudoeste 40 Sur 0 -- -- 34
2018-05-22 19:00:00 25.8 20 Sur 39 Sur 0 -- -- 39
2018-05-22 18:00:00 27.5 21 Sur 39 Sur 0 -- -- 36
2018-05-22 17:00:00 28.7 18 Sur 35 Sur 0 -- -- 32
2018-05-22 16:00:00 28.9 19 Sudoeste 32 Sudoeste 0 -- -- 32
2018-05-22 15:00:00 29.3 12 Sudoeste 23 Sudoeste 0 -- -- 32
2018-05-22 14:00:00 28.2 11 Sudoeste 22 Oeste 0 -- -- 27
2018-05-22 13:00:00 27.1 8 Sudoeste 19 Sudoeste 0 -- -- 32
2018-05-22 12:00:00 25.4 4 Norte 9 Oeste 0 -- -- 38
2018-05-22 11:00:00 23.4 4 Norte 10 Nordeste 0 -- -- 43
2018-05-22 10:00:00 21.3 2 Norte 5 Nordeste 0 -- -- 53
2018-05-22 09:00:00 18.1 0 Calma 3 Oeste 0 -- -- 67
2018-05-22 08:00:00 15.1 2 Sudoeste 7 Este 0 -- -- 82
2018-05-22 07:00:00 12.6 0 Calma 4 Este 0 -- -- 92
2018-05-22 06:00:00 12.7 2 Sudoeste 7 Sur 0 -- -- 93
2018-05-22 05:00:00 13 2 Sudoeste 5 Sudoeste 0 -- -- 92
2018-05-22 04:00:00 13.8 4 Sudoeste 9 Sur 0 -- -- 90
2018-05-22 03:00:00 14.4 9 Sur 10 Sur 0 -- -- 93
2018-05-22 02:00:00 15 5 Sudoeste 8 Sur 0 -- -- 89
2018-05-22 01:00:00 15.8 5 Sudoeste 14 Sudoeste 0 -- -- 87
2018-05-22 00:00:00 17.2 11 Oeste 19 Sudoeste 0 -- -- 81
2018-05-21 23:00:00 17.7 9 Sudoeste 17 Sudoeste 0 -- -- 77
2018-05-21 22:00:00 19.1 9 Sudoeste 20 Sudoeste 0 -- -- 63
2018-05-21 21:00:00 21.3 12 Sudoeste 25 Sudoeste 0 -- -- 51
2018-05-21 20:00:00 23.3 16 Sudoeste 30 Sudoeste 0 -- -- 44
2018-05-21 19:00:00 24.6 18 Sur 31 Sudoeste 0 -- -- 43
2018-05-21 18:00:00 24.7 23 Sur 38 Sudoeste 0 -- -- 40
2018-05-21 17:00:00 24.9 22 Sur 41 Sur 0 -- -- 42
2018-05-21 16:00:00 25.4 25 Sudoeste 43 Sudoeste 0 -- -- 43
2018-05-21 15:00:00 25.7 20 Sur 33 Sudoeste 0 -- -- 44
2018-05-21 14:00:00 26 9 Sur 21 Sudoeste 0 -- -- 41
2018-05-21 13:00:00 24.8 8 Sudoeste 19 Sudoeste 0 -- -- 42
2018-05-21 12:00:00 23.3 9 Sudoeste 22 Oeste 0 -- -- 45
2018-05-21 11:00:00 21.3 6 Oeste 11 Oeste 0 -- -- 53
2018-05-21 10:00:00 19.1 5 Sudoeste 13 Sudoeste 0 -- -- 62
2018-05-21 09:00:00 15.9 6 Sudoeste 10 Sudoeste 0 -- -- 74
2018-05-21 08:00:00 12.9 0 Calma 6 Sudoeste 0 -- -- 88
2018-05-21 07:00:00 11 4 Sudoeste 8 Sur 0 -- -- 95
2018-05-21 06:00:00 11.4 2 Sudoeste 5 Sur 0 -- -- 93
2018-05-21 05:00:00 11.8 0 Calma 4 Este 0 -- -- 92
2018-05-21 04:00:00 12.6 3 Este 4 Este 0 -- -- 90
2018-05-21 03:00:00 13.7 3 Nordeste 8 Nordeste 0 -- -- 84
2018-05-21 02:00:00 13.3 4 Este 8 Este 0 -- -- 89
2018-05-21 01:00:00 13.6 0 Calma 5 Sur 0 -- -- 87
2018-05-21 00:00:00 14.4 4 Sudoeste 7 Sudoeste 0 -- -- 81
2018-05-20 23:00:00 15.7 5 Sudoeste 13 Sudoeste 0 -- -- 78
2018-05-20 22:00:00 17.6 7 Sudoeste 21 Sudoeste 0 -- -- 70
2018-05-20 21:00:00 19.1 13 Sudoeste 27 Oeste 0 -- -- 64
2018-05-20 20:00:00 22.1 15 Sudoeste 35 Sudoeste 0 -- -- 52
2018-05-20 19:00:00 24.3 13 Sur 26 Oeste 0 -- -- 48
2018-05-20 18:00:00 23.9 7 Nordeste 21 Este 0 -- -- 39
2018-05-20 17:00:00 23.9 9 Este 28 Nordeste 0 -- -- 37
2018-05-20 16:00:00 23.8 8 Nordeste 24 Sudeste 0 -- -- 42
2018-05-20 15:00:00 24.1 6 Este 21 Este 0 -- -- 41
2018-05-20 14:00:00 24.6 9 Este 21 Este 0 -- -- 40
2018-05-20 13:00:00 22.8 13 Norte 22 Nordeste 0 -- -- 43
2018-05-20 12:00:00 22.1 10 Norte 18 Nordeste 0 -- -- 46
2018-05-20 11:00:00 20.5 10 Nordeste 16 Nordeste 0 -- -- 51
2018-05-20 10:00:00 19.3 6 Nordeste 11 Este 0 -- -- 64
2018-05-20 09:00:00 16.8 4 Norte 7 Norte 0 -- -- 76
2018-05-20 08:00:00 13.4 4 Nordeste 8 Este 0 -- -- 88
2018-05-20 07:00:00 12.5 5 Nordeste 9 Este 0 -- -- 94
2018-05-20 06:00:00 12.8 7 Este 8 Este 0 -- -- 94
2018-05-20 05:00:00 13.1 3 Norte 10 Este 0 -- -- 91
2018-05-20 04:00:00 13.2 4 Este 6 Este 0 -- -- 92
2018-05-20 03:00:00 13.4 4 Nordeste 9 Sur 0 -- -- 92
2018-05-20 02:00:00 14 4 Sudoeste 10 Sur 0 -- -- 92
2018-05-20 01:00:00 14.3 5 Sur 8 Sur 0 -- -- 91
2018-05-20 00:00:00 14.9 7 Sur 9 Sur 0 -- -- 89
2018-05-19 23:00:00 16.1 7 Sur 14 Sudoeste 0 -- -- 83
2018-05-19 22:00:00 17.5 9 Sudoeste 26 Sudoeste 0 -- -- 74
2018-05-19 21:00:00 19.4 12 Oeste 28 Oeste 0 -- -- 66
2018-05-19 20:00:00 22.9 9 Norte 16 Nordeste 0 -- -- 48
2018-05-19 19:00:00 23.1 8 Nordeste 23 Nordeste 0 -- -- 46
2018-05-19 18:00:00 25.3 13 Este 26 Este 0 -- -- 39
2018-05-19 17:00:00 25.8 11 Nordeste 45 Este 0 -- -- 38
2018-05-19 16:00:00 25.4 12 Nordeste 34 Nordeste 0 -- -- 35
2018-05-19 15:00:00 24.7 14 Norte 26 Norte 0 -- -- 36
2018-05-19 14:00:00 23.5 14 Nordeste 25 Nordeste 0 -- -- 39
2018-05-19 13:00:00 22.6 11 Norte 24 Nordeste 0 -- -- 42
2018-05-19 12:00:00 21.7 12 Norte 23 Norte 0 -- -- 47
2018-05-19 11:00:00 20.4 9 Norte 17 Norte 0 -- -- 55
2018-05-19 10:00:00 18.9 11 Nordeste 18 Nordeste 0 -- -- 62
2018-05-19 09:00:00 17.1 9 Nordeste 12 Nordeste 0 -- -- 76
2018-05-19 08:00:00 14.4 7 Nordeste 9 Nordeste 0 -- -- 89
2018-05-19 07:00:00 11.9 3 Nordeste 6 Nordeste 0 -- -- 94
2018-05-19 06:00:00 12.2 5 Nordeste 6 Nordeste 0 -- -- 92
2018-05-19 05:00:00 12.7 5 Este 8 Este 0 -- -- 90
2018-05-19 04:00:00 13 4 Nordeste 6 Nordeste 0 -- -- 88
2018-05-19 03:00:00 13.3 3 Norte 6 Nordeste 0 -- -- 87
2018-05-19 02:00:00 13.7 3 Norte 5 Nordeste 0 -- -- 85
2018-05-19 01:00:00 14.4 4 Nordeste 5 Nordeste 0 -- -- 79
2018-05-19 00:00:00 15.5 2 Nordeste 5 Nordeste 0 -- -- 76
2018-05-18 23:00:00 17.6 3 Nordeste 13 Este 0 -- -- 62
2018-05-18 22:00:00 19.3 8 Nordeste 21 Este 0 -- -- 52
2018-05-18 21:00:00 20 8 Nordeste 17 Nordeste 0 -- -- 52
2018-05-18 20:00:00 22.2 11 Nordeste 21 Norte 0 -- -- 45
2018-05-18 19:00:00 23.1 8 Este 26 Este 0 -- -- 44
2018-05-18 18:00:00 25 15 Sudeste 26 Sudeste 0 -- -- 40
2018-05-18 17:00:00 24.1 14 Este 28 Este 0 -- -- 40
2018-05-18 16:00:00 24.7 12 Nordeste 30 Sudeste 0 -- -- 39
2018-05-18 15:00:00 23.8 10 Nordeste 23 Nordeste 0 -- -- 42
2018-05-18 14:00:00 23.3 12 Nordeste 24 Nordeste 0 -- -- 45
2018-05-18 13:00:00 23.4 10 Nordeste 19 Nordeste 0 -- -- 44
2018-05-18 12:00:00 22.3 8 Nordeste 16 Nordeste 0 -- -- 47
2018-05-18 11:00:00 20.6 8 Nordeste 15 Nordeste 0 -- -- 50
2018-05-18 10:00:00 18.9 6 Nordeste 11 Nordeste 0 -- -- 57
2018-05-18 09:00:00 16 5 Nordeste 8 Nordeste 0 -- -- 70
2018-05-18 08:00:00 13.5 2 Noroeste 4 Sudeste 0 -- -- 79
2018-05-18 07:00:00 11.6 0 Calma 6 Nordeste 0 -- -- 87
2018-05-18 06:00:00 11.7 4 Nordeste 7 Este 0 -- -- 90
2018-05-18 05:00:00 11.9 0 Calma 6 Norte 0 -- -- 88
2018-05-18 04:00:00 12.6 3 Nordeste 7 Nordeste 0 -- -- 83
2018-05-18 03:00:00 13 5 Nordeste 8 Nordeste 0 -- -- 83
2018-05-18 02:00:00 12.4 4 Nordeste 6 Nordeste 0 -- -- 87
2018-05-18 01:00:00 12.9 3 Oeste 4 Oeste 0 -- -- 85
2018-05-18 00:00:00 13.7 2 Nordeste 3 Nordeste 0 -- -- 82
2018-05-17 23:00:00 14.8 3 Sudeste 5 Sur 0 -- -- 74
2018-05-17 22:00:00 16.6 3 Sudoeste 12 Nordeste 0 -- -- 67
2018-05-17 21:00:00 19 9 Nordeste 22 Nordeste 0 -- -- 53
2018-05-17 20:00:00 21.5 10 Nordeste 28 Nordeste 0 -- -- 46
2018-05-17 19:00:00 22.2 16 Este 28 Nordeste 0 -- -- 43
2018-05-17 18:00:00 22.9 15 Este 37 Este 0 -- -- 44
2018-05-17 17:00:00 23.3 15 Nordeste 36 Nordeste 0 -- -- 41
2018-05-17 16:00:00 23.4 19 Nordeste 40 Nordeste 0 -- -- 43
2018-05-17 15:00:00 23 19 Nordeste 37 Nordeste 0 -- -- 43
2018-05-17 14:00:00 22.6 22 Nordeste 39 Nordeste 0 -- -- 43
2018-05-17 13:00:00 22.1 19 Nordeste 37 Nordeste 0 -- -- 45
2018-05-17 12:00:00 21.2 17 Norte 32 Nordeste 0 -- -- 48
2018-05-17 11:00:00 20.3 20 Norte 28 Norte 0 -- -- 48
2018-05-17 10:00:00 19 14 Nordeste 28 Nordeste 0 -- -- 49
2018-05-17 09:00:00 17.4 13 Nordeste 21 Nordeste 0 -- -- 52
2018-05-17 08:00:00 12 4 Nordeste 7 Nordeste 0 -- -- 83
2018-05-17 07:00:00 11.1 5 Nordeste 9 Nordeste 0 -- -- 84
2018-05-17 06:00:00 11.1 5 Nordeste 7 Nordeste 0 -- -- 87
2018-05-17 05:00:00 11.7 5 Nordeste 7 Nordeste 0 -- -- 86
2018-05-17 04:00:00 12.3 3 Norte 9 Nordeste 0 -- -- 80
2018-05-17 03:00:00 12.6 6 Nordeste 8 Nordeste 0 -- -- 84
2018-05-17 02:00:00 13.4 6 Nordeste 9 Nordeste 0 -- -- 77
2018-05-17 01:00:00 13.8 6 Nordeste 9 Nordeste 0 -- -- 71
2018-05-17 00:00:00 14.3 6 Nordeste 9 Nordeste 0 -- -- 64
2018-05-16 23:00:00 14.8 4 Norte 9 Norte 0 -- -- 63
2018-05-16 22:00:00 16.9 8 Norte 17 Nordeste 0 -- -- 51
2018-05-16 21:00:00 19.7 9 Este 27 Nordeste 0 -- -- 38
2018-05-16 20:00:00 22.1 12 Nordeste 31 Este 0 -- -- 32
2018-05-16 19:00:00 23.3 16 Este 28 Este 0 -- -- 29
2018-05-16 18:00:00 24.1 15 Este 30 Nordeste 0 -- -- 28
2018-05-16 17:00:00 24.5 14 Nordeste 37 Nordeste 0 -- -- 30
2018-05-16 16:00:00 24.2 19 Nordeste 35 Nordeste 0 -- -- 29
2018-05-16 15:00:00 24.2 13 Nordeste 31 Nordeste 0 -- -- 29
2018-05-16 14:00:00 23.5 13 Nordeste 28 Este 0 -- -- 31
2018-05-16 13:00:00 22.1 12 Norte 22 Nordeste 0 -- -- 40
2018-05-16 12:00:00 20.7 10 Norte 23 Nordeste 0 -- -- 44
2018-05-16 11:00:00 19 11 Norte 21 Nordeste 0 -- -- 56
2018-05-16 10:00:00 17.2 12 Nordeste 19 Nordeste 0 -- -- 69
2018-05-16 09:00:00 15.6 8 Nordeste 12 Nordeste 0 -- -- 80
2018-05-16 08:00:00 13 3 Nordeste 10 Este 0 -- -- 89
2018-05-16 07:00:00 11 7 Este 12 Este 0 -- -- 96
2018-05-16 06:00:00 11.2 6 Nordeste 9 Este 0 -- -- 92
2018-05-16 05:00:00 11.6 5 Nordeste 6 Nordeste 0 -- -- 90
2018-05-16 04:00:00 12.1 4 Nordeste 7 Este 0 -- -- 88
2018-05-16 03:00:00 12.3 5 Este 6 Este 0 -- -- 87
2018-05-16 02:00:00 13.1 3 Oeste 9 Sudeste 0 -- -- 83
2018-05-16 01:00:00 13.1 2 Sudeste 5 Este 0 -- -- 83
2018-05-16 00:00:00 14.7 5 Nordeste 7 Este 0 -- -- 73
2018-05-15 23:00:00 15.5 4 Norte 9 Noroeste 0 -- -- 66
2018-05-15 22:00:00 17.3 6 Norte 14 Nordeste 0 -- -- 59
2018-05-15 21:00:00 19.6 10 Nordeste 17 Sudeste 0 -- -- 57
2018-05-15 20:00:00 23.3 4 Sur 20 Sur 0 -- -- 45
2018-05-15 19:00:00 22.8 8 Sur 15 Sudoeste 0 -- -- 46
2018-05-15 18:00:00 21.3 10 Sudeste 23 Sudeste 0 -- -- 51
2018-05-15 17:00:00 21.9 13 Sudeste 30 Sudeste 0 -- -- 50
2018-05-15 16:00:00 22.3 14 Sudeste 35 Este 0 -- -- 47
2018-05-15 15:00:00 23 6 Sudeste 25 Norte 0 -- -- 41
2018-05-15 14:00:00 23.3 8 Nordeste 26 Nordeste 0 -- -- 41
2018-05-15 13:00:00 21.4 11 Norte 18 Norte 0 -- -- 49
2018-05-15 12:00:00 20.1 6 Norte 18 Nordeste 0 -- -- 53
2018-05-15 11:00:00 18.7 11 Norte 21 Norte 0 -- -- 57
2018-05-15 10:00:00 17.3 8 Nordeste 14 Norte 0 -- -- 65
2018-05-15 09:00:00 16 9 Nordeste 14 Nordeste 0 -- -- 66
2018-05-15 08:00:00 13.1 9 Nordeste 15 Nordeste 0 -- -- 84
2018-05-15 07:00:00 11.7 9 Este 12 Este 0 -- -- 94
2018-05-15 06:00:00 11.7 7 Nordeste 15 Nordeste 0 -- -- 94
2018-05-15 05:00:00 11.4 6 Nordeste 14 Nordeste 0 -- -- 93
2018-05-15 04:00:00 11.9 10 Nordeste 17 Nordeste 0 -- -- 92
2018-05-15 03:00:00 11.4 5 Nordeste 9 Nordeste 0 -- -- 91
2018-05-15 02:00:00 12.3 8 Nordeste 10 Nordeste 0 -- -- 87
2018-05-15 01:00:00 13.4 6 Nordeste 9 Este 0 -- -- 78
2018-05-15 00:00:00 14.2 4 Nordeste 10 Nordeste 0 -- -- 72
2018-05-14 23:00:00 16.2 3 Norte 15 Sur 0 -- -- 50
2018-05-14 22:00:00 18.7 12 Sur 28 Sur 0 -- -- 35
2018-05-14 21:00:00 19.8 14 Sur 27 Sur 0 -- -- 32
2018-05-14 20:00:00 20.4 14 Sur 24 Sur 0 -- -- 33
2018-05-14 19:00:00 20.6 15 Sur 24 Sudoeste 0 -- -- 33
2018-05-14 18:00:00 21.6 13 Sur 24 Sur 0 -- -- 32
2018-05-14 17:00:00 23.9 4 Norte 15 Nordeste 0 -- -- 29
2018-05-14 16:00:00 25.6 6 Norte 15 Sudoeste 0 -- -- 26
2018-05-14 15:00:00 23.2 8 Este 20 Nordeste 0 -- -- 29
2018-05-14 14:00:00 23.3 11 Este 24 Nordeste 0 -- -- 29
2018-05-14 13:00:00 21.9 12 Norte 26 Noroeste 0 -- -- 31
2018-05-14 12:00:00 21.3 13 Norte 27 Nordeste 0 -- -- 32
2018-05-14 11:00:00 20.2 11 Norte 24 Norte 0 -- -- 31
2018-05-14 10:00:00 19.3 11 Norte 26 Norte 0 -- -- 32
2018-05-14 09:00:00 17.3 9 Nordeste 16 Este 0 -- -- 36
2018-05-14 08:00:00 15.1 8 Nordeste 16 Nordeste 0 -- -- 42
2018-05-14 07:00:00 9.8 7 Nordeste 11 Nordeste 0 -- -- 72
2018-05-14 06:00:00 9.3 0 Calma 7 Sur 0 -- -- 93
2018-05-14 05:00:00 9.9 6 Sudoeste 10 Sudoeste 0 -- -- 91
2018-05-14 04:00:00 11.4 6 Sudoeste 16 Sudoeste 0 -- -- 86
2018-05-14 03:00:00 13.2 8 Sudoeste 21 Sur 0 -- -- 80
2018-05-14 02:00:00 14.6 13 Sur 22 Sur 0 -- -- 69
2018-05-14 01:00:00 14.8 10 Sur 21 Sur 0 -- -- 70
2018-05-11 20:00:00 -- -- -- -- -- -- -- -- --
2018-05-11 19:00:00 -- -- -- -- -- -- -- -- --
2018-05-11 18:00:00 -- -- -- -- -- -- -- -- --
2018-05-11 17:00:00 25.8 20 Sudoeste 33 Sudoeste 0 -- -- 57
2018-05-11 16:00:00 25.7 14 Sudoeste 23 Sudoeste 0 -- -- 54
2018-05-11 15:00:00 23 4 Noroeste 15 Oeste 0 -- -- 63
2018-05-11 14:00:00 21.2 6 Nordeste 15 Nordeste 0 -- -- 67
2018-05-11 13:00:00 19.8 8 Norte 14 Norte 0 -- -- 73
2018-05-11 12:00:00 18.2 6 Nordeste 11 Este 0 -- -- 81
2018-05-11 11:00:00 17 4 Norte 9 Norte 0 -- -- 88
2018-05-11 10:00:00 16 5 Nordeste 8 Nordeste 0 -- -- 96
2018-05-11 09:00:00 15.7 2 Norte 7 Nordeste 0 -- -- 98
2018-05-11 08:00:00 15.2 5 Este 8 Este 0 -- -- 100
2018-05-11 07:00:00 14.6 4 Nordeste 8 Este 0 -- -- 100
2018-05-11 06:00:00 14.1 3 Norte 10 Nordeste 0 -- -- 99
2018-05-11 05:00:00 14.5 5 Nordeste 10 Este 0 -- -- 99
2018-05-11 04:00:00 13.6 0 Calma 6 Nordeste 0 -- -- 98
2018-05-11 03:00:00 14.4 7 Nordeste 9 Nordeste 0 -- -- 98
2018-05-11 02:00:00 14.6 0 Calma 17 Este 0 -- -- 97
2018-05-11 01:00:00 15.4 7 Sudoeste 15 Sudoeste 0 -- -- 97
2018-05-11 00:00:00 15.3 8 Sur 15 Sur 0 -- -- 97
2018-05-10 23:00:00 16.3 6 Nordeste 17 Nordeste 0 -- -- 97
2018-05-10 22:00:00 16.8 12 Nordeste 17 Nordeste 0 -- -- 98
2018-05-10 21:00:00 17.1 7 Nordeste 12 Nordeste 0 -- -- 98
2018-05-10 20:00:00 17.3 4 Nordeste 5 Nordeste 0 -- -- 99
2018-05-10 19:00:00 17.1 0 Calma 17 Nordeste 0.6 -- -- 100
2018-05-10 18:00:00 16.8 9 Este 14 Este 0.8 -- -- 100
2018-05-10 17:00:00 16.7 3 Sudeste 24 Norte 11.2 -- -- 99
2018-05-10 16:00:00 16.6 19 Norte 41 Oeste 19.8 -- -- 96
2018-05-10 15:00:00 22.2 23 Este 42 Este 0 -- -- 63
2018-05-10 14:00:00 24.5 13 Nordeste 29 Nordeste 0 -- -- 60
2018-05-10 13:00:00 24.5 13 Nordeste 22 Nordeste 0 -- -- 56
2018-05-10 12:00:00 24 11 Nordeste 19 Nordeste 0 -- -- 58
2018-05-10 11:00:00 22.8 12 Nordeste 19 Nordeste 0 -- -- 61
2018-05-10 10:00:00 19.3 6 Nordeste 12 Nordeste 0 -- -- 81
2018-05-10 09:00:00 18.1 0 Calma 6 Sur 0 -- -- 83
2018-05-10 08:00:00 15.3 4 Sur 10 Sur 0 -- -- 96
2018-05-10 07:00:00 15.1 5 Sur 12 Sudoeste 0 -- -- 94
2018-05-10 06:00:00 15.2 5 Nordeste 9 Noroeste 0 -- -- 96
2018-05-10 05:00:00 14.8 0 Calma 9 Sur 0 -- -- 95
2018-05-10 04:00:00 15.6 4 Nordeste 10 Sudeste 0 -- -- 93
2018-05-10 03:00:00 16.3 5 Nordeste 10 Este 0 -- -- 89
2018-05-10 02:00:00 15.8 2 Oeste 12 Sur 0 -- -- 91
2018-05-10 01:00:00 16.7 12 Sur 20 Sur 0 -- -- 86
2018-05-10 00:00:00 17 14 Sudoeste 21 Sur 0 -- -- 89
2018-05-09 23:00:00 17.5 14 Sudoeste 23 Sudoeste 0 -- -- 88
2018-05-09 22:00:00 18.1 9 Sudoeste 24 Este 1.4 -- -- 86
2018-05-09 21:00:00 18.9 7 Sur 15 Este 0.8 -- -- 81
2018-05-09 20:00:00 20.5 13 Sur 32 Sudoeste 0.6 -- -- 73
2018-05-09 19:00:00 23 19 Sur 36 Sudoeste 0 -- -- 55
2018-05-09 18:00:00 24.3 24 Sur 37 Sur 0 -- -- 50
2018-05-09 17:00:00 23 21 Sudoeste 43 Sur 0 -- -- 57
2018-05-09 16:00:00 25.2 27 Sur 46 Sur 0 -- -- 47
2018-05-09 15:00:00 28.6 20 Sur 38 Sudoeste 0 -- -- 40
2018-05-09 14:00:00 28.6 7 Sudoeste 21 Sudoeste 0 -- -- 36
2018-05-09 13:00:00 27.4 8 Sudeste 22 Sudeste 0 -- -- 41
2018-05-09 12:00:00 25.3 8 Este 13 Sudeste 0 -- -- 46
2018-05-09 11:00:00 23.4 6 Norte 13 Norte 0 -- -- 48
2018-05-09 10:00:00 21.5 7 Nordeste 11 Nordeste 0 -- -- 61
2018-05-09 09:00:00 18.8 6 Este 10 Este 0 -- -- 76
2018-05-09 08:00:00 15.6 0 Calma 6 Sudoeste 0 -- -- 92
2018-05-09 07:00:00 13.8 4 Sudoeste 7 Sur 0 -- -- 96
2018-05-09 06:00:00 14.7 3 Sudoeste 6 Oeste 0 -- -- 94
2018-05-09 05:00:00 15.4 3 Sur 5 Sur 0 -- -- 94
2018-05-09 04:00:00 15.6 5 Sudoeste 7 Sudoeste 0 -- -- 95
2018-05-09 03:00:00 16 0 Calma 4 Sudeste 0 -- -- 94
2018-05-09 02:00:00 16.1 3 Este 9 Nordeste 0 -- -- 93
2018-05-09 01:00:00 16.4 5 Nordeste 7 Nordeste 0 -- -- 92
2018-05-09 00:00:00 17.2 2 Norte 9 Norte 0 -- -- 93
2018-05-08 23:00:00 17.7 7 Este 10 Este 0 -- -- 86
2018-05-08 22:00:00 18 7 Este 13 Sudeste 0 -- -- 86
2018-05-08 21:00:00 18.3 11 Sudeste 13 Sudeste 0 -- -- 81
2018-05-08 20:00:00 19.7 6 Sudoeste 13 Sur 0 -- -- 84
2018-05-08 19:00:00 19.9 5 Sudoeste 11 Sudoeste 0.2 -- -- 82
2018-05-08 18:00:00 17.9 5 Sur 26 Sudeste 1.4 -- -- 90
2018-05-08 17:00:00 17.2 23 Este 46 Nordeste 4.6 -- -- 83
2018-05-08 16:00:00 28.9 18 Sur 31 Sudeste 0 -- -- 39
2018-05-08 15:00:00 28.2 8 Este 23 Nordeste 0 -- -- 34
2018-05-08 14:00:00 27.7 12 Este 20 Este 0 -- -- 35
2018-05-08 13:00:00 25.9 5 Nordeste 14 Este 0 -- -- 43
2018-05-08 12:00:00 23.2 5 Sudoeste 21 Sudoeste 0 -- -- 51
2018-05-08 11:00:00 21 13 Sudoeste 26 Sudoeste 0 -- -- 63
2018-05-08 10:00:00 18.8 17 Sudoeste 28 Sudoeste 0 -- -- 72
2018-05-08 09:00:00 16.7 15 Sudoeste 27 Sudoeste 0 -- -- 81
2018-05-08 08:00:00 13.9 6 Sur 10 Sur 0 -- -- 93
2018-05-08 07:00:00 12.6 5 Nordeste 15 Nordeste 0 -- -- 92
2018-05-08 06:00:00 12.6 6 Nordeste 10 Nordeste 0 -- -- 93
2018-05-08 05:00:00 13.1 6 Nordeste 8 Nordeste 0 -- -- 96
2018-05-08 04:00:00 12.6 4 Sudeste 9 Sudoeste 0 -- -- 95
2018-05-08 03:00:00 12.7 6 Sudoeste 8 Sudoeste 0 -- -- 93
2018-05-08 02:00:00 13.5 0 Calma 5 Oeste 0 -- -- 91
2018-05-08 01:00:00 13.8 0 Calma 5 Sudoeste 0 -- -- 89
2018-05-08 00:00:00 14.9 3 Sur 8 Sudoeste 0 -- -- 85
2018-05-07 23:00:00 15.9 4 Sur 18 Sudoeste 0 -- -- 82
2018-05-07 22:00:00 17.2 10 Sudoeste 33 Sudoeste 0 -- -- 77
2018-05-07 21:00:00 19.9 21 Oeste 33 Oeste 0 -- -- 65
2018-05-07 20:00:00 23.5 12 Nordeste 25 Nordeste 0 -- -- 45
2018-05-07 19:00:00 25.1 9 Este 22 Este 0 -- -- 40
2018-05-07 18:00:00 25.3 11 Nordeste 28 Nordeste 0 -- -- 39
2018-05-07 17:00:00 25.6 12 Norte 24 Nordeste 0 -- -- 32
2018-05-07 16:00:00 25.4 10 Nordeste 27 Nordeste 0 -- -- 38
2018-05-07 15:00:00 25.1 9 Nordeste 27 Nordeste 0 -- -- 43
2018-05-07 14:00:00 24.2 3 Oeste 16 Este 0 -- -- 42
2018-05-07 13:00:00 24 6 Sudeste 13 Sudeste 0 -- -- 42
2018-05-07 12:00:00 22 4 Noroeste 14 Nordeste 0 -- -- 47
2018-05-07 11:00:00 21.2 4 Norte 13 Norte 0 -- -- 51
2018-05-07 10:00:00 19.8 6 Nordeste 14 Nordeste 0 -- -- 57
2018-05-07 09:00:00 17.2 8 Nordeste 12 Nordeste 0 -- -- 67
2018-05-07 08:00:00 14.1 6 Nordeste 9 Nordeste 0 -- -- 85
2018-05-07 07:00:00 12 5 Nordeste 7 Este 0 -- -- 92
2018-05-07 06:00:00 11.7 4 Nordeste 6 Nordeste 0 -- -- 91
2018-05-07 05:00:00 12 5 Nordeste 6 Nordeste 0 -- -- 89
2018-05-07 04:00:00 12.5 5 Nordeste 8 Nordeste 0 -- -- 88
2018-05-07 03:00:00 12.9 4 Este 8 Nordeste 0 -- -- 88
2018-05-07 02:00:00 13.7 3 Nordeste 8 Nordeste 0 -- -- 86
2018-05-07 01:00:00 14.3 6 Nordeste 10 Este 0 -- -- 82
2018-05-07 00:00:00 15 7 Norte 12 Norte 0 -- -- 78
2018-05-06 23:00:00 16.4 8 Norte 15 Nordeste 0 -- -- 70
2018-05-06 22:00:00 18.6 11 Nordeste 21 Nordeste 0 -- -- 57
2018-05-06 21:00:00 20 17 Nordeste 28 Nordeste 0 -- -- 49
2018-05-06 20:00:00 22.1 14 Nordeste 33 Este 0 -- -- 44
2018-05-06 19:00:00 23.4 13 Nordeste 30 Nordeste 0 -- -- 43
2018-05-06 18:00:00 24.1 17 Nordeste 27 Nordeste 0 -- -- 43
2018-05-06 17:00:00 24.4 16 Este 33 Este 0 -- -- 41
2018-05-06 16:00:00 24.3 13 Nordeste 27 Nordeste 0 -- -- 40
2018-05-06 15:00:00 24.8 10 Nordeste 23 Este 0 -- -- 38
2018-05-06 14:00:00 24.1 13 Nordeste 25 Nordeste 0 -- -- 41
2018-05-06 13:00:00 23 8 Nordeste 15 Nordeste 0 -- -- 44
2018-05-06 12:00:00 21.7 3 Noroeste 15 Nordeste 0 -- -- 48
2018-05-06 11:00:00 20 9 Nordeste 17 Norte 0 -- -- 53
2018-05-06 10:00:00 18.5 8 Nordeste 12 Nordeste 0 -- -- 54
2018-05-06 09:00:00 15.9 4 Norte 6 Norte 0 -- -- 64
2018-05-06 08:00:00 13.6 3 Nordeste 7 Este 0 -- -- 76
2018-05-06 07:00:00 10.6 2 Sur 4 Sudeste 0 -- -- 88
2018-05-06 06:00:00 11.5 2 Este 10 Este 0 -- -- 82
2018-05-06 05:00:00 13.5 9 Este 10 Este 0 -- -- 71
2018-05-06 04:00:00 13.2 3 Este 7 Este 0 -- -- 76
2018-05-06 03:00:00 13.2 4 Este 7 Nordeste 0 -- -- 77
2018-05-06 02:00:00 14.3 5 Nordeste 8 Este 0 -- -- 72
2018-05-06 01:00:00 14.5 4 Este 8 Nordeste 0 -- -- 73
2018-05-06 00:00:00 15.2 4 Sur 9 Sudeste 0 -- -- 69
2018-05-05 23:00:00 16.4 7 Sur 12 Sudoeste 0 -- -- 62
2018-05-05 22:00:00 17.7 8 Sudoeste 24 Sudoeste 0 -- -- 57
2018-05-05 21:00:00 18.3 14 Sudoeste 38 Sudoeste 0 -- -- 56
2018-05-05 20:00:00 21.8 6 Noroeste 21 Este 0 -- -- 44
2018-05-05 19:00:00 22.2 12 Sudeste 25 Sudeste 0 -- -- 42
2018-05-05 18:00:00 23.1 15 Sur 36 Sur 0 -- -- 41
2018-05-05 17:00:00 25.1 17 Sur 33 Sur 0 -- -- 38
2018-05-05 16:00:00 24.8 18 Sur 32 Sudoeste 0 -- -- 40
2018-05-05 15:00:00 23.2 18 Sur 33 Sudoeste 0 -- -- 44
2018-05-05 14:00:00 25.8 15 Sudoeste 30 Sudoeste 0 -- -- 38
2018-05-05 13:00:00 24.1 10 Nordeste 21 Nordeste 0 -- -- 36
2018-05-05 12:00:00 22.7 8 Norte 15 Norte 0 -- -- 38
2018-05-05 11:00:00 21.4 5 Nordeste 10 Nordeste 0 -- -- 46
2018-05-05 10:00:00 19.2 5 Norte 11 Nordeste 0 -- -- 56
2018-05-05 09:00:00 16.9 6 Nordeste 9 Nordeste 0 -- -- 73
2018-05-05 08:00:00 15.3 0 Calma 6 Este 0 -- -- 81
2018-05-05 07:00:00 13.9 3 Sudoeste 6 Sur 0 -- -- 92
2018-05-05 06:00:00 14.3 3 Sudeste 5 Sudeste 0 -- -- 90
2018-05-05 05:00:00 14.5 0 Calma 4 Este 0 -- -- 90
2018-05-05 04:00:00 14.8 0 Calma 4 Nordeste 0 -- -- 88
2018-05-05 03:00:00 14.9 0 Calma 6 Este 0 -- -- 89
2018-05-05 02:00:00 15.1 4 Nordeste 10 Nordeste 0 -- -- 90
2018-05-05 01:00:00 15.7 5 Nordeste 9 Nordeste 0 -- -- 79
2018-05-05 00:00:00 15.9 7 Norte 10 Norte 0 -- -- 73
2018-05-04 23:00:00 16.5 7 Nordeste 12 Nordeste 0 -- -- 66
2018-05-04 22:00:00 17.4 8 Noroeste 21 Oeste 0 -- -- 53
2018-05-04 21:00:00 18.5 7 Norte 19 Nordeste 0 -- -- 50
2018-05-04 20:00:00 21 10 Nordeste 25 Nordeste 0 -- -- 44
2018-05-04 19:00:00 21.6 14 Nordeste 28 Este 0 -- -- 41
2018-05-04 18:00:00 22.6 16 Nordeste 32 Nordeste 0 -- -- 39
2018-05-04 17:00:00 23.4 13 Nordeste 28 Nordeste 0 -- -- 36
2018-05-04 16:00:00 23 12 Nordeste 25 Nordeste 0 -- -- 36
2018-05-04 15:00:00 23.2 14 Nordeste 33 Nordeste 0 -- -- 36
2018-05-04 14:00:00 21.5 10 Nordeste 23 Nordeste 0 -- -- 41
2018-05-04 13:00:00 21.5 8 Norte 20 Nordeste 0 -- -- 39
2018-05-04 12:00:00 19.9 10 Norte 20 Nordeste 0 -- -- 43
2018-05-04 11:00:00 19.1 10 Nordeste 23 Nordeste 0 -- -- 47
2018-05-04 10:00:00 17.5 13 Nordeste 22 Nordeste 0 -- -- 50
2018-05-04 09:00:00 16.6 8 Norte 12 Nordeste 0 -- -- 49
2018-05-04 08:00:00 15.8 4 Este 15 Norte 0 -- -- 51
2018-05-04 07:00:00 15 6 Este 15 Nordeste 0 -- -- 48
2018-05-04 06:00:00 16.1 7 Nordeste 17 Nordeste 0 -- -- 43
2018-05-04 05:00:00 15.9 7 Nordeste 15 Nordeste 0 -- -- 48
2018-05-04 04:00:00 13.8 6 Nordeste 12 Nordeste 0 -- -- 72
2018-05-04 03:00:00 13.6 7 Este 14 Este 0 -- -- 71
2018-05-04 02:00:00 13.8 10 Este 15 Este 0 -- -- 79
2018-05-04 01:00:00 14.9 0 Calma 10 Este 0 -- -- 74
2018-05-04 00:00:00 15.6 8 Este 10 Este 0 -- -- 68
2018-05-03 23:00:00 17.2 7 Nordeste 11 Nordeste 0 -- -- 59
2018-05-03 22:00:00 18.9 8 Nordeste 16 Este 0 -- -- 51
2018-05-03 21:00:00 19.5 8 Sur 14 Sur 0 -- -- 43
2018-05-03 20:00:00 20.9 9 Sur 24 Sudeste 0 -- -- 42
2018-05-03 19:00:00 21.2 12 Sur 27 Sur 0 -- -- 41
2018-05-03 18:00:00 23.3 10 Sur 24 Noroeste 0 -- -- 36
2018-05-03 17:00:00 25.2 14 Norte 28 Norte 0 -- -- 28
2018-05-03 16:00:00 26.3 11 Noroeste 29 Norte 0 -- -- 24
2018-05-03 15:00:00 26.1 15 Norte 31 Noroeste 0 -- -- 26
2018-05-03 14:00:00 24.8 14 Norte 31 Oeste 0 -- -- 29
2018-05-03 13:00:00 23.9 11 Norte 28 Noroeste 0 -- -- 30
2018-05-03 12:00:00 22.5 17 Norte 33 Norte 0 -- -- 34
2018-05-03 11:00:00 20.1 15 Norte 31 Noroeste 0 -- -- 38
2018-05-03 10:00:00 19.2 15 Norte 28 Norte 0 -- -- 40
2018-05-03 09:00:00 18.2 8 Nordeste 19 Este 0 -- -- 41
2018-05-03 08:00:00 17.7 13 Este 23 Nordeste 0 -- -- 37
2018-05-03 07:00:00 17.1 10 Este 24 Este 0 -- -- 35
2018-05-03 06:00:00 17 12 Este 21 Nordeste 0 -- -- 34
2018-05-03 05:00:00 17.1 8 Este 20 Este 0 -- -- 35
2018-05-03 04:00:00 17.1 5 Este 21 Nordeste 0 -- -- 36
2018-05-03 03:00:00 17 6 Nordeste 21 Nordeste 0 -- -- 37
2018-05-03 02:00:00 16 8 Nordeste 15 Nordeste 0 -- -- 40
2018-05-03 01:00:00 13.7 4 Norte 10 Este 0 -- -- 53
2018-05-03 00:00:00 15.6 3 Sur 18 Sur 0 -- -- 46
2018-05-02 23:00:00 16.5 10 Sur 23 Sur 0 -- -- 42
2018-05-02 22:00:00 16.6 13 Sur 22 Sur 0 -- -- 41
2018-05-02 21:00:00 16.5 12 Sur 31 Sur 0 -- -- 40
2018-05-02 20:00:00 17.6 19 Sur 37 Sur 0 -- -- 36
2018-05-02 19:00:00 19 21 Sur 37 Sur 0 -- -- 34
2018-05-02 18:00:00 20.2 21 Sur 35 Sudoeste 0 -- -- 30
2018-05-02 17:00:00 22.1 23 Sur 36 Sur 0 -- -- 27
2018-05-02 16:00:00 21.9 19 Sur 35 Sudoeste 0 -- -- 28
2018-05-02 15:00:00 23.4 5 Sudoeste 25 Sudoeste 0 -- -- 24
2018-05-02 14:00:00 22.5 7 Oeste 26 Oeste 0 -- -- 27
2018-05-02 13:00:00 20.1 11 Norte 23 Norte 0 -- -- 29
2018-05-02 12:00:00 20.2 8 Norte 21 Noroeste 0 -- -- 30
2018-05-02 11:00:00 18.3 6 Noroeste 17 Oeste 0 -- -- 34
2018-05-02 10:00:00 14.7 3 Nordeste 10 Sudoeste 0 -- -- 51
2018-05-02 09:00:00 10.5 4 Sudoeste 8 Sudoeste 0 -- -- 67
2018-05-02 08:00:00 7.4 6 Sur 9 Sur 0 -- -- 89
2018-05-02 07:00:00 4.8 6 Sudoeste 10 Sudoeste 0 -- -- 95
2018-05-02 06:00:00 5.2 3 Sudoeste 6 Sudoeste 0 -- -- 94
2018-05-02 05:00:00 6.1 5 Sudoeste 8 Sudoeste 0 -- -- 92
2018-05-02 04:00:00 6.2 3 Sur 5 Sudoeste 0 -- -- 92
2018-05-02 03:00:00 6.9 4 Sudoeste 12 Sudoeste 0 -- -- 88
2018-05-02 02:00:00 8.6 9 Sur 12 Sur 0 -- -- 84
2018-05-02 01:00:00 9.2 3 Sur 12 Sur 0 -- -- 85
2018-05-02 00:00:00 11.1 7 Oeste 15 Este 0 -- -- 75
2018-05-01 23:00:00 10.7 2 Nordeste 9 Nordeste 0 -- -- 75
2018-05-01 22:00:00 10.6 3 Este 13 Este 0 -- -- 71
2018-05-01 21:00:00 12.9 11 Sur 26 Sur 0 -- -- 56
2018-05-01 20:00:00 15.8 17 Sur 29 Sur 0 -- -- 48
2018-05-01 19:00:00 13.9 16 Sur 29 Sur 0 -- -- 56
2018-05-01 18:00:00 13.1 15 Sur 35 Sur 0 -- -- 65
2018-05-01 17:00:00 13.1 16 Sur 37 Sudoeste 0.2 -- -- 66
2018-05-01 16:00:00 18.9 8 Oeste 23 Este 0 -- -- 32
2018-05-01 15:00:00 18.4 10 Este 22 Nordeste 0 -- -- 34
2018-05-01 14:00:00 17.6 12 Nordeste 30 Norte 0 -- -- 35
2018-05-01 13:00:00 18.2 17 Norte 31 Norte 0 -- -- 34
2018-05-01 12:00:00 17.1 14 Norte 27 Norte 0 -- -- 39
2018-05-01 11:00:00 15.5 13 Norte 24 Norte 0 -- -- 45
2018-05-01 10:00:00 14.1 7 Noroeste 19 Norte 0 -- -- 51
2018-05-01 09:00:00 12.5 4 Nordeste 11 Norte 0 -- -- 57
2018-05-01 08:00:00 10.6 2 Norte 10 Nordeste 0 -- -- 67
2018-05-01 07:00:00 8.7 3 Nordeste 12 Nordeste 0 -- -- 74
2018-05-01 06:00:00 8.8 8 Nordeste 10 Nordeste 0 -- -- 75
2018-05-01 05:00:00 8.7 4 Nordeste 12 Nordeste 0 -- -- 78
2018-05-01 04:00:00 8.9 3 Nordeste 7 Nordeste 0 -- -- 84
2018-05-01 03:00:00 9.7 0 Calma 6 Este 0 -- -- 86
2018-05-01 02:00:00 11.6 3 Norte 10 Nordeste 0 -- -- 81
2018-05-01 01:00:00 12.3 9 Este 18 Este 0 -- -- 70
2018-05-01 00:00:00 11.8 5 Nordeste 9 Nordeste 0 -- -- 83
2018-04-30 23:00:00 12.1 2 Nordeste 23 Sudeste 0 -- -- 83
2018-04-30 22:00:00 12.1 8 Sudeste 18 Este 0.4 -- -- 81
2018-04-30 21:00:00 12.6 6 Norte 14 Este 0.4 -- -- 82
2018-04-30 20:00:00 13.5 9 Norte 15 Nordeste 0 -- -- 79
2018-04-30 19:00:00 14.7 6 Este 13 Sudeste 0 -- -- 73
2018-04-30 18:00:00 15.6 9 Sudoeste 24 Sudeste 0.6 -- -- 72
2018-04-30 17:00:00 18.2 12 Sur 22 Sur 0 -- -- 50
2018-04-30 16:00:00 20 10 Este 24 Este 0 -- -- 40
2018-04-30 15:00:00 21.7 7 Noroeste 27 Oeste 0 -- -- 30
2018-04-30 14:00:00 20.3 6 Norte 19 Este 0 -- -- 32
2018-04-30 13:00:00 19.9 4 Nordeste 16 Nordeste 0 -- -- 36
2018-04-30 12:00:00 16.7 5 Norte 14 Norte 0 -- -- 43
2018-04-30 11:00:00 16.9 7 Nordeste 16 Nordeste 0 -- -- 43
2018-04-30 10:00:00 16.1 4 Norte 11 Nordeste 0 -- -- 45
2018-04-30 09:00:00 14.5 4 Este 8 Este 0 -- -- 52
2018-04-30 08:00:00 10.9 5 Nordeste 6 Nordeste 0 -- -- 65
2018-04-30 07:00:00 9.4 6 Nordeste 13 Este 0 -- -- 68
2018-04-30 06:00:00 11.7 9 Nordeste 16 Este 0 -- -- 58
2018-04-30 05:00:00 12.5 11 Nordeste 20 Este 0 -- -- 49
2018-04-30 04:00:00 8.4 3 Sur 6 Sudoeste 0 -- -- 65
2018-04-30 03:00:00 9.8 3 Sudoeste 14 Sur 0 -- -- 59
2018-04-30 02:00:00 12.1 11 Sur 15 Sur 0 -- -- 48
2018-04-30 01:00:00 11.4 6 Sudoeste 13 Sur 0 -- -- 53
2018-04-30 00:00:00 12.8 8 Sudoeste 14 Sur 0 -- -- 46
2018-04-29 23:00:00 13.5 2 Sur 10 Sudeste 0 -- -- 44
2018-04-29 22:00:00 14.6 7 Sudoeste 12 Oeste 0 -- -- 40
2018-04-29 21:00:00 17.9 8 Noroeste 24 Oeste 0 -- -- 28
2018-04-29 20:00:00 21 13 Sudoeste 32 Oeste 0 -- -- 24
2018-04-29 19:00:00 21.9 21 Sudoeste 40 Sudoeste 0 -- -- 22
2018-04-29 18:00:00 22.2 22 Sudoeste 51 Sudoeste 0 -- -- 22
2018-04-29 17:00:00 22.5 24 Sudoeste 39 Sudoeste 0 -- -- 22
2018-04-29 16:00:00 22.4 23 Sudoeste 48 Oeste 0 -- -- 21
2018-04-29 15:00:00 21.9 24 Sudoeste 49 Sudoeste 0 -- -- 22
2018-04-29 14:00:00 21.4 27 Sudoeste 55 Oeste 0 -- -- 24
2018-04-29 13:00:00 20.2 27 Sudoeste 65 Sudoeste 0 -- -- 26
2018-04-29 12:00:00 19.3 27 Sudoeste 54 Sudoeste 0 -- -- 29
2018-04-29 11:00:00 18.1 26 Sudoeste 49 Sudoeste 0 -- -- 31
2018-04-29 10:00:00 16.7 21 Sudoeste 46 Sudoeste 0 -- -- 37
2018-04-29 09:00:00 14.9 23 Sudoeste 46 Sudoeste 0 -- -- 46
2018-04-29 08:00:00 14.3 27 Sur 46 Sur 0 -- -- 46
2018-04-29 07:00:00 13.7 19 Sudoeste 35 Sur 0 -- -- 47
2018-04-29 06:00:00 13.9 18 Sudoeste 30 Sur 0 -- -- 47
2018-04-29 05:00:00 12.5 14 Sur 22 Sur 0 -- -- 59
2018-04-29 04:00:00 11.9 2 Sur 11 Sudeste 0 -- -- 95
2018-04-29 03:00:00 12.6 4 Nordeste 7 Norte 0 -- -- 95
2018-04-29 02:00:00 12.9 4 Nordeste 10 Nordeste 0 -- -- 94
2018-04-29 01:00:00 14 6 Nordeste 12 Nordeste 0 -- -- 92
2018-04-29 00:00:00 15.2 9 Nordeste 13 Nordeste 0 -- -- 87
2018-04-28 23:00:00 16.5 10 Nordeste 17 Nordeste 0 -- -- 80
2018-04-28 22:00:00 18.7 10 Nordeste 15 Nordeste 0 -- -- 67
2018-04-28 21:00:00 21.8 13 Nordeste 26 Sur 0 -- -- 37
2018-04-28 20:00:00 25.1 19 Sur 45 Sur 0 -- -- 24
2018-04-28 19:00:00 26 23 Sur 46 Sur 0 -- -- 25
2018-04-28 18:00:00 27.1 22 Sur 48 Sur 0 -- -- 22
2018-04-28 17:00:00 27.7 27 Sur 48 Sudeste 0 -- -- 23
2018-04-28 16:00:00 27.6 22 Sudeste 35 Sudeste 0 -- -- 33
2018-04-28 15:00:00 28 14 Sur 35 Sur 0 -- -- 40
2018-04-28 14:00:00 28 15 Sur 29 Sur 0 -- -- 44
2018-04-28 13:00:00 26.5 7 Sur 18 Sur 0 -- -- 35
2018-04-28 12:00:00 24.7 3 Nordeste 13 Norte 0 -- -- 43
2018-04-28 11:00:00 23 7 Norte 12 Norte 0 -- -- 47
2018-04-28 10:00:00 19.8 2 Norte 6 Oeste 0 -- -- 64
2018-04-28 09:00:00 16.5 2 Sudoeste 6 Este 0 -- -- 79
2018-04-28 08:00:00 14.5 5 Nordeste 8 Nordeste 0 -- -- 94
2018-04-28 07:00:00 13.6 7 Este 9 Nordeste 0 -- -- 95
2018-04-28 06:00:00 13.7 6 Nordeste 9 Nordeste 0 -- -- 95
2018-04-28 05:00:00 13.6 8 Nordeste 11 Nordeste 0 -- -- 94
2018-04-28 04:00:00 13.9 6 Nordeste 12 Este 0 -- -- 94
2018-04-28 03:00:00 14.7 5 Nordeste 8 Este 0 -- -- 90
2018-04-28 02:00:00 14.8 0 Calma 10 Sudoeste 0 -- -- 92
2018-04-28 01:00:00 15.3 6 Sudoeste 8 Sudoeste 0 -- -- 90
2018-04-28 00:00:00 16.3 8 Sur 13 Sur 0 -- -- 81
2018-04-27 23:00:00 17.6 7 Sudoeste 14 Sudoeste 0 -- -- 77
2018-04-27 22:00:00 19.4 6 Sudeste 9 Sudeste 0 -- -- 69
2018-04-27 21:00:00 21.4 8 Este 18 Sur 0 -- -- 57
2018-04-27 20:00:00 23.5 14 Sur 32 Sur 0 -- -- 45
2018-04-27 19:00:00 24.9 16 Sur 32 Sudoeste 0 -- -- 44
2018-04-27 18:00:00 20.7 14 Sur 24 Sudoeste 0.4 -- -- 73
2018-04-27 17:00:00 22.3 14 Sudoeste 24 Sudoeste 0 -- -- 57
2018-04-27 16:00:00 23.9 18 Sudoeste 36 Sudoeste 0 -- -- 52
2018-04-27 15:00:00 28.6 21 Sur 36 Sur 0 -- -- 38
2018-04-27 14:00:00 28.2 18 Sudoeste 27 Sudoeste 0 -- -- 39
2018-04-27 13:00:00 27 9 Sudoeste 17 Sudoeste 0 -- -- 43
2018-04-27 12:00:00 24.1 6 Sudoeste 12 Sudoeste 0 -- -- 52
2018-04-27 11:00:00 21.1 6 Sudoeste 14 Oeste 0 -- -- 61
2018-04-27 10:00:00 18.2 6 Sudoeste 18 Sudoeste 0 -- -- 76
2018-04-27 09:00:00 15.8 8 Sudoeste 14 Sudoeste 0 -- -- 88
2018-04-27 08:00:00 13.5 4 Sudoeste 13 Sudoeste 0 -- -- 96
2018-04-27 07:00:00 12.9 5 Sudoeste 12 Sudoeste 0 -- -- 95
2018-04-27 06:00:00 13.1 5 Sudoeste 13 Sudoeste 0 -- -- 92
2018-04-27 05:00:00 14 12 Sudoeste 19 Sudoeste 0 -- -- 92
2018-04-27 04:00:00 13.7 10 Sudoeste 21 Sudoeste 0 -- -- 92
2018-04-27 03:00:00 16.1 12 Sudoeste 27 Sudoeste 0 -- -- 79
2018-04-27 02:00:00 16.7 15 Sudoeste 30 Sur 0 -- -- 78
2018-04-27 01:00:00 17.1 18 Sur 34 Sur 0 -- -- 77
2018-04-27 00:00:00 16.8 14 Sur 19 Sur 0 -- -- 80
2018-04-26 23:00:00 16.3 12 Sur 19 Sur 0 -- -- 83
2018-04-26 22:00:00 16.9 2 Sudeste 14 Sudoeste 0 -- -- 85
2018-04-26 21:00:00 19.1 2 Nordeste 18 Oeste 0 -- -- 72
2018-04-26 20:00:00 21.7 7 Oeste 17 Sudoeste 0 -- -- 59
2018-04-26 19:00:00 21.9 10 Oeste 18 Nordeste 0 -- -- 58
2018-04-26 18:00:00 21.6 10 Nordeste 18 Norte 0 -- -- 59
2018-04-26 17:00:00 22.7 10 Norte 17 Norte 0 -- -- 52
2018-04-26 16:00:00 22.8 6 Nordeste 21 Este 0 -- -- 51
2018-04-26 15:00:00 21.5 9 Nordeste 30 Este 0 -- -- 57
2018-04-26 14:00:00 21.4 14 Nordeste 28 Nordeste 0 -- -- 55
2018-04-26 13:00:00 20.1 12 Norte 19 Norte 0 -- -- 62
2018-04-26 12:00:00 19.3 8 Nordeste 13 Nordeste 0 -- -- 65
2018-04-26 11:00:00 16.4 6 Este 16 Este 1 -- -- 81
2018-04-26 10:00:00 15.9 8 Este 13 Este 0.6 -- -- 80
2018-04-26 09:00:00 16.3 3 Nordeste 22 Norte 0.2 -- -- 77
2018-04-26 08:00:00 16.4 12 Nordeste 20 Nordeste 0.2 -- -- 71
2018-04-26 07:00:00 17 10 Este 18 Nordeste 0 -- -- 69
2018-04-26 06:00:00 17 9 Nordeste 21 Nordeste 0 -- -- 71
2018-04-26 05:00:00 16.4 9 Nordeste 19 Este 0.2 -- -- 79
2018-04-26 04:00:00 17.1 13 Este 24 Nordeste 0 -- -- 74
2018-04-26 03:00:00 17.1 12 Norte 26 Norte 0 -- -- 75
2018-04-26 02:00:00 16.3 9 Nordeste 12 Nordeste 0 -- -- 90
2018-04-26 01:00:00 16.5 7 Este 16 Este 0.6 -- -- 88
2018-04-26 00:00:00 16.3 8 Nordeste 12 Nordeste 0 -- -- 93
2018-04-25 23:00:00 16.4 7 Nordeste 10 Nordeste 0.2 -- -- 92
2018-04-25 22:00:00 17 6 Nordeste 14 Nordeste 0 -- -- 86
2018-04-25 21:00:00 17.4 6 Nordeste 10 Nordeste 0 -- -- 84
2018-04-25 20:00:00 18.5 8 Este 14 Este 0 -- -- 74
2018-04-25 19:00:00 18.6 5 Norte 15 Norte 0 -- -- 72
2018-04-25 18:00:00 18.7 8 Nordeste 15 Noroeste 0 -- -- 76
2018-04-25 17:00:00 17.5 8 Norte 16 Norte 0.2 -- -- 85
2018-04-25 16:00:00 16.2 10 Nordeste 20 Nordeste 0.2 -- -- 88
2018-04-25 15:00:00 16.9 10 Nordeste 18 Nordeste 0.6 -- -- 83
2018-04-25 14:00:00 16.6 9 Nordeste 15 Nordeste 0.6 -- -- 82
2018-04-25 13:00:00 16.2 11 Nordeste 26 Nordeste 0.6 -- -- 82
2018-04-25 12:00:00 16.9 14 Nordeste 28 Este 0.2 -- -- 70
2018-04-25 11:00:00 18.5 10 Norte 18 Este 0.2 -- -- 60
2018-04-25 10:00:00 19.3 5 Nordeste 21 Nordeste 0 -- -- 48
2018-04-25 09:00:00 18.6 11 Nordeste 18 Nordeste 0 -- -- 48
2018-04-25 08:00:00 17.5 6 Nordeste 15 Nordeste 0 -- -- 55
2018-04-25 07:00:00 18.1 9 Nordeste 18 Nordeste 0 -- -- 52
2018-04-25 06:00:00 18.1 9 Nordeste 15 Nordeste 0 -- -- 53
2018-04-25 05:00:00 18.3 10 Nordeste 21 Nordeste 0 -- -- 51
2018-04-25 04:00:00 17.9 9 Nordeste 15 Este 0 -- -- 54
2018-04-25 03:00:00 18.8 9 Nordeste 20 Este 0 -- -- 50
2018-04-25 02:00:00 18 10 Nordeste 18 Norte 0 -- -- 54
2018-04-25 01:00:00 18.4 9 Norte 17 Norte 0 -- -- 52
2018-04-25 00:00:00 18.9 14 Norte 19 Norte 0 -- -- 50
2018-04-24 23:00:00 18.7 11 Norte 26 Nordeste 0 -- -- 50
2018-04-24 22:00:00 19.4 12 Norte 28 Nordeste 0 -- -- 48
2018-04-24 21:00:00 20.2 16 Norte 36 Norte 0 -- -- 44
2018-04-24 20:00:00 22 21 Nordeste 39 Nordeste 0 -- -- 40
2018-04-24 19:00:00 22.5 27 Nordeste 44 Nordeste 0 -- -- 43
2018-04-24 18:00:00 24.2 28 Nordeste 43 Este 0 -- -- 40
2018-04-24 17:00:00 25.7 24 Nordeste 43 Este 0 -- -- 36
2018-04-24 16:00:00 26 27 Nordeste 49 Este 0 -- -- 35
2018-04-24 15:00:00 27 27 Nordeste 42 Nordeste 0 -- -- 33
2018-04-24 14:00:00 26.2 27 Nordeste 44 Norte 0 -- -- 33
2018-04-24 13:00:00 25.7 25 Nordeste 54 Norte 0 -- -- 34
2018-04-24 12:00:00 24.9 32 Nordeste 55 Nordeste 0 -- -- 30
2018-04-24 11:00:00 24 28 Nordeste 50 Nordeste 0 -- -- 32
2018-04-24 10:00:00 21.5 21 Nordeste 35 Nordeste 0 -- -- 37
2018-04-24 09:00:00 19.7 13 Nordeste 21 Nordeste 0 -- -- 42
2018-04-24 08:00:00 17.3 12 Norte 25 Nordeste 0 -- -- 46
2018-04-24 07:00:00 18.9 20 Nordeste 30 Nordeste 0 -- -- 40
2018-04-24 06:00:00 18.7 17 Nordeste 29 Nordeste 0 -- -- 41
2018-04-24 05:00:00 18.4 16 Nordeste 26 Nordeste 0 -- -- 44
2018-04-24 04:00:00 18.7 18 Nordeste 37 Nordeste 0 -- -- 46
2018-04-24 03:00:00 19.3 31 Nordeste 49 Norte 0 -- -- 42
2018-04-24 02:00:00 18.8 19 Norte 28 Norte 0 -- -- 47
2018-04-24 01:00:00 18.5 14 Nordeste 28 Nordeste 0 -- -- 51
2018-04-24 00:00:00 19.4 22 Nordeste 36 Nordeste 0 -- -- 48